< < Back
Terminal Aerodrome Forecast


Current Version              Previous Versions:   1  2  3  4  5  6  7  8  9  

Terminal Aerodrome Forecast

130
FTUS42 KTAE 300200 AAA
TAFVLD
TAF AMD
KVLD 300221Z 3002/3024 03004KT P6SM OVC007
      TEMPO 3002/3006 4SM -DZ BR BKN002
     FM300600 04003KT 3SM -DZ BR BKN002
     FM301600 03005KT P6SM BKN025
     FM301900 04005KT P6SM SCT030=

Latest METAR

294
SAUS70 KWBC 301000 RRP
MTRVLD
METAR KVLD 300953Z AUTO 03006KT 7SM OVC007 21/20 A2986 RMK AO2 CIG
005V011 SLP119 T02060200


USA.gov is the U.S. government's official web portal to all federal, state and local government web resources and services.